Time;durP1;ratioP1;P1;durP2;ratioP2;P2;SDS_P1;SDS_P2;PMS_P1;PMS_P2;Temp;Humidity;BMP_temperature;BMP_pressure;BME280_temperature;BME280_humidity;BME280_pressure;Samples;Min_cycle;Max_cycle;Signal;HPM_P1;HPM_P2
2023/07/28 00:00:13;;;;;;;20.60;4.60;;;;;;;;;;5068772;28;20087;-69
2023/07/28 00:02:40;;;;;;;18.63;4.82;;;;;;;;;;5068579;28;20483;-70
2023/07/28 00:05:09;;;;;;;19.02;4.18;;;;;;;;;;5067726;28;20051;-70
2023/07/28 00:07:36;;;;;;;19.95;4.60;;;;;;;;;;5052253;28;20092;-70
2023/07/28 00:10:04;;;;;;;20.35;4.40;;;;;;;;;;5067636;28;20049;-70
2023/07/28 00:12:31;;;;;;;16.63;4.25;;;;;;;;;;5068607;28;20086;-70
2023/07/28 00:14:59;;;;;;;16.42;4.15;;;;;;;;;;5066076;28;20479;-70
2023/07/28 00:17:27;;;;;;;22.77;4.65;;;;;;;;;;5067460;28;20048;-70
2023/07/28 00:19:54;;;;;;;20.23;4.55;;;;;;;;;;5067302;28;20053;-70
2023/07/28 00:22:22;;;;;;;16.48;4.75;;;;;;;;;;5068271;28;20403;-70
2023/07/28 00:24:50;;;;;;;21.00;4.28;;;;;;;;;;5066435;28;20066;-70
2023/07/28 00:27:18;;;;;;;21.35;4.30;;;;;;;;;;5067796;28;20510;-70
2023/07/28 00:29:45;;;;;;;16.25;4.57;;;;;;;;;;5061199;28;20049;-70
2023/07/28 00:32:12;;;;;;;22.10;4.47;;;;;;;;;;5068345;28;20378;-70
2023/07/28 00:34:40;;;;;;;20.70;4.38;;;;;;;;;;5065644;28;20525;-70
2023/07/28 00:37:07;;;;;;;19.75;4.80;;;;;;;;;;5063151;28;20048;-70
2023/07/28 00:39:35;;;;;;;17.02;4.25;;;;;;;;;;5065529;28;20522;-70
2023/07/28 00:42:03;;;;;;;21.80;4.78;;;;;;;;;;5065126;28;20545;-70
2023/07/28 00:44:30;;;;;;;19.52;4.80;;;;;;;;;;5069002;28;20491;-70
2023/07/28 00:46:57;;;;;;;17.80;4.30;;;;;;;;;;5070679;28;20491;-70
2023/07/28 00:49:25;;;;;;;18.95;4.47;;;;;;;;;;5067003;28;20071;-70
2023/07/28 00:51:52;;;;;;;19.02;4.45;;;;;;;;;;5064697;28;20238;-70
2023/07/28 00:54:20;;;;;;;15.70;4.60;;;;;;;;;;5068319;28;20112;-70
2023/07/28 00:56:49;;;;;;;29.27;5.15;;;;;;;;;;5067113;28;20056;-70
2023/07/28 00:59:16;;;;;;;17.52;4.45;;;;;;;;;;5068171;28;20056;-70
2023/07/28 01:01:43;;;;;;;20.70;5.63;;;;;;;;;;5066558;28;20554;-70
2023/07/28 01:04:10;;;;;;;21.70;4.50;;;;;;;;;;5068480;28;20110;-70
2023/07/28 01:06:42;;;;;;;19.42;5.07;;;;;;;;;;5065296;28;20579;-70
2023/07/28 01:09:14;;;;;;;24.67;5.05;;;;;;;;;;5069951;28;20094;-70
2023/07/28 01:11:55;;;;;;;17.00;4.72;;;;;;;;;;5066263;28;20106;-70
2023/07/28 01:14:22;;;;;;;22.77;5.32;;;;;;;;;;5073498;28;20550;-70
2023/07/28 01:16:49;;;;;;;19.98;5.10;;;;;;;;;;5068577;28;20127;-70
2023/07/28 01:19:18;;;;;;;20.63;4.88;;;;;;;;;;5066326;28;20061;-70
2023/07/28 01:21:47;;;;;;;24.08;5.22;;;;;;;;;;5068232;28;20113;-70
2023/07/28 01:24:17;;;;;;;24.33;5.32;;;;;;;;;;5064979;28;20056;-70
2023/07/28 01:26:46;;;;;;;19.15;4.68;;;;;;;;;;5068250;28;20071;-70
2023/07/28 01:29:14;;;;;;;19.42;4.72;;;;;;;;;;5050679;28;20475;-70
2023/07/28 01:31:42;;;;;;;23.45;4.93;;;;;;;;;;5067511;28;20483;-71
2023/07/28 01:34:09;;;;;;;16.70;4.63;;;;;;;;;;5067516;28;20054;-70
2023/07/28 01:36:36;;;;;;;15.43;4.30;;;;;;;;;;5067379;28;20139;-70
2023/07/28 01:39:04;;;;;;;13.73;4.25;;;;;;;;;;5067533;28;20056;-70
2023/07/28 01:41:31;;;;;;;17.60;4.68;;;;;;;;;;5068688;28;20037;-70
2023/07/28 01:43:59;;;;;;;18.48;4.07;;;;;;;;;;5065179;28;20041;-70
2023/07/28 01:46:27;;;;;;;15.55;4.78;;;;;;;;;;5068030;28;20059;-70
2023/07/28 01:48:54;;;;;;;16.17;4.53;;;;;;;;;;5071365;28;20056;-70
2023/07/28 01:51:21;;;;;;;16.70;3.97;;;;;;;;;;5068737;28;20158;-70
2023/07/28 01:53:48;;;;;;;16.95;3.97;;;;;;;;;;5067720;28;20471;-70
2023/07/28 01:56:16;;;;;;;11.32;3.58;;;;;;;;;;5070754;28;20055;-70
2023/07/28 01:58:43;;;;;;;16.67;3.72;;;;;;;;;;5068715;28;20056;-70
2023/07/28 02:01:14;;;;;;;14.77;3.83;;;;;;;;;;5070185;28;20052;-70
2023/07/28 02:03:41;;;;;;;17.63;3.45;;;;;;;;;;5064728;28;20049;-70
2023/07/28 02:06:08;;;;;;;18.33;3.88;;;;;;;;;;5071953;28;20105;-70
2023/07/28 02:08:35;;;;;;;15.25;3.53;;;;;;;;;;5070779;28;20131;-70
2023/07/28 02:11:02;;;;;;;16.42;3.13;;;;;;;;;;5069582;28;20495;-70
2023/07/28 02:13:30;;;;;;;15.68;3.40;;;;;;;;;;5073787;28;20075;-70
2023/07/28 02:15:57;;;;;;;18.58;3.65;;;;;;;;;;5074199;28;20492;-71
2023/07/28 02:18:26;;;;;;;11.35;3.33;;;;;;;;;;5070398;28;20045;-70
2023/07/28 02:20:53;;;;;;;15.38;3.38;;;;;;;;;;5069127;28;20044;-70
2023/07/28 02:23:20;;;;;;;14.52;2.97;;;;;;;;;;5070311;28;20041;-70
2023/07/28 02:25:47;;;;;;;18.95;4.20;;;;;;;;;;5068878;28;20491;-71
2023/07/28 02:28:14;;;;;;;16.55;3.70;;;;;;;;;;5070129;28;20490;-70
2023/07/28 02:30:42;;;;;;;11.38;3.25;;;;;;;;;;5068749;28;20048;-70
2023/07/28 02:33:09;;;;;;;10.93;3.80;;;;;;;;;;5068079;28;20079;-70
2023/07/28 02:35:38;;;;;;;10.98;3.22;;;;;;;;;;5066879;28;20063;-70
2023/07/28 02:38:05;;;;;;;12.07;3.45;;;;;;;;;;5071483;28;20041;-70
2023/07/28 02:40:33;;;;;;;11.13;3.05;;;;;;;;;;5069197;28;20507;-70
2023/07/28 02:43:01;;;;;;;17.40;3.42;;;;;;;;;;5070597;28;20086;-70
2023/07/28 02:45:28;;;;;;;11.35;3.05;;;;;;;;;;5068711;28;20059;-71
2023/07/28 02:47:55;;;;;;;12.20;3.47;;;;;;;;;;5068833;28;20059;-70
2023/07/28 02:50:23;;;;;;;8.55;2.85;;;;;;;;;;5069174;28;20047;-71
2023/07/28 02:52:51;;;;;;;13.50;3.13;;;;;;;;;;5068806;28;20487;-71
2023/07/28 02:55:18;;;;;;;13.70;3.45;;;;;;;;;;5066116;28;20053;-70
2023/07/28 02:57:46;;;;;;;13.30;3.15;;;;;;;;;;5070828;28;20048;-71
2023/07/28 03:00:14;;;;;;;12.40;3.22;;;;;;;;;;5067511;28;20203;-71
2023/07/28 03:02:41;;;;;;;7.18;2.90;;;;;;;;;;5065387;28;20044;-70
2023/07/28 03:05:09;;;;;;;14.32;3.17;;;;;;;;;;5069140;28;20049;-71
2023/07/28 03:07:36;;;;;;;12.90;3.50;;;;;;;;;;5068745;28;20560;-71
2023/07/28 03:10:05;;;;;;;8.77;2.67;;;;;;;;;;5065931;28;20060;-70
2023/07/28 03:12:32;;;;;;;14.10;3.40;;;;;;;;;;5069819;28;20048;-71
2023/07/28 03:15:00;;;;;;;10.10;2.80;;;;;;;;;;5074334;28;20420;-71
2023/07/28 03:17:27;;;;;;;17.73;4.13;;;;;;;;;;5053564;28;20045;-71
2023/07/28 03:19:54;;;;;;;7.15;2.67;;;;;;;;;;5069012;28;20067;-71
2023/07/28 03:22:21;;;;;;;10.68;2.67;;;;;;;;;;5069655;28;20483;-71
2023/07/28 03:24:49;;;;;;;11.27;3.05;;;;;;;;;;5070101;28;20059;-70
2023/07/28 03:27:18;;;;;;;15.98;3.00;;;;;;;;;;5067774;28;20394;-71
2023/07/28 03:29:45;;;;;;;12.00;2.60;;;;;;;;;;5069021;28;20049;-71
2023/07/28 03:32:12;;;;;;;7.53;2.50;;;;;;;;;;5068493;28;20044;-71
2023/07/28 03:34:39;;;;;;;6.43;2.70;;;;;;;;;;5070202;28;20048;-71
2023/07/28 03:37:07;;;;;;;10.27;2.45;;;;;;;;;;5066573;28;20041;-71
2023/07/28 03:39:34;;;;;;;5.82;2.72;;;;;;;;;;5065886;28;20072;-70
2023/07/28 03:42:01;;;;;;;7.10;2.63;;;;;;;;;;5069421;28;20059;-71
2023/07/28 03:44:30;;;;;;;8.15;2.90;;;;;;;;;;5068852;28;20082;-71
2023/07/28 03:46:57;;;;;;;6.97;2.63;;;;;;;;;;5066620;28;20511;-71
2023/07/28 03:49:25;;;;;;;6.05;2.35;;;;;;;;;;5069042;28;20056;-71
2023/07/28 03:51:52;;;;;;;9.18;2.58;;;;;;;;;;5066851;28;20040;-71
2023/07/28 03:54:19;;;;;;;7.28;2.65;;;;;;;;;;5069073;28;20495;-71
2023/07/28 03:56:46;;;;;;;8.73;2.60;;;;;;;;;;5066986;28;20045;-71
2023/07/28 03:59:14;;;;;;;8.80;2.30;;;;;;;;;;5069353;28;20495;-71
2023/07/28 04:01:42;;;;;;;7.80;2.90;;;;;;;;;;5065893;28;20059;-71
2023/07/28 04:04:09;;;;;;;7.78;2.25;;;;;;;;;;5068815;28;20040;-71
2023/07/28 04:06:43;;;;;;;5.68;2.50;;;;;;;;;;5068517;28;20061;-71
2023/07/28 04:09:11;;;;;;;10.55;2.45;;;;;;;;;;5044073;28;20053;-71
2023/07/28 04:11:38;;;;;;;10.70;2.90;;;;;;;;;;5066484;28;20052;-71
2023/07/28 04:14:06;;;;;;;8.93;2.80;;;;;;;;;;5066794;28;20482;-71
2023/07/28 04:16:33;;;;;;;4.82;2.47;;;;;;;;;;5053771;28;20060;-71
2023/07/28 04:19:01;;;;;;;10.63;3.17;;;;;;;;;;5064283;28;20084;-71
2023/07/28 04:21:28;;;;;;;6.63;3.15;;;;;;;;;;5067484;28;20102;-71
2023/07/28 04:23:55;;;;;;;14.07;3.25;;;;;;;;;;5067261;28;20056;-71
2023/07/28 04:26:24;;;;;;;6.82;3.70;;;;;;;;;;5068145;28;20098;-71
2023/07/28 04:28:51;;;;;;;10.48;5.07;;;;;;;;;;5068716;28;20048;-71
2023/07/28 04:31:18;;;;;;;9.57;4.95;;;;;;;;;;5067975;28;21124;-71
2023/07/28 04:33:45;;;;;;;10.88;5.70;;;;;;;;;;5068645;28;20055;-71
2023/07/28 04:36:14;;;;;;;11.27;6.38;;;;;;;;;;5066815;28;20052;-70
2023/07/28 04:38:41;;;;;;;9.32;5.90;;;;;;;;;;5066464;28;20056;-71
2023/07/28 04:41:08;;;;;;;9.68;6.63;;;;;;;;;;5066799;28;20049;-71
2023/07/28 04:43:36;;;;;;;13.18;6.30;;;;;;;;;;5067564;28;20044;-71
2023/07/28 04:46:03;;;;;;;14.13;7.00;;;;;;;;;;5068557;28;20505;-71
2023/07/28 04:48:30;;;;;;;12.55;6.72;;;;;;;;;;5067302;28;20519;-71
2023/07/28 04:50:57;;;;;;;12.52;7.47;;;;;;;;;;5063015;28;20055;-71
2023/07/28 04:53:26;;;;;;;11.35;7.05;;;;;;;;;;5066251;28;20049;-71
2023/07/28 04:55:53;;;;;;;13.23;6.82;;;;;;;;;;5069501;28;20047;-71
2023/07/28 04:58:21;;;;;;;11.25;7.15;;;;;;;;;;5066857;28;20471;-71
2023/07/28 05:00:48;;;;;;;12.70;7.07;;;;;;;;;;5067499;28;20496;-71
2023/07/28 05:03:15;;;;;;;10.60;6.70;;;;;;;;;;5066571;28;20407;-71
2023/07/28 05:05:45;;;;;;;10.35;7.22;;;;;;;;;;5067748;28;20527;-71
2023/07/28 05:08:12;;;;;;;11.35;8.00;;;;;;;;;;5066957;28;20145;-71
2023/07/28 05:10:42;;;;;;;13.57;8.00;;;;;;;;;;5067448;28;20056;-71
2023/07/28 05:13:10;;;;;;;12.45;7.80;;;;;;;;;;5068425;28;20080;-71
2023/07/28 05:15:37;;;;;;;13.85;7.97;;;;;;;;;;5064097;28;20083;-71
2023/07/28 05:18:04;;;;;;;12.77;8.07;;;;;;;;;;5068126;28;20048;-71
2023/07/28 05:20:31;;;;;;;14.38;8.27;;;;;;;;;;5067907;28;20059;-71
2023/07/28 05:22:59;;;;;;;11.15;7.57;;;;;;;;;;5066827;28;20961;-71
2023/07/28 05:25:26;;;;;;;11.93;7.53;;;;;;;;;;5065542;28;20045;-71
2023/07/28 05:27:56;;;;;;;17.20;7.80;;;;;;;;;;5070189;28;20056;-71
2023/07/28 05:30:23;;;;;;;13.40;7.80;;;;;;;;;;5068366;28;20123;-71
2023/07/28 05:32:50;;;;;;;13.57;7.85;;;;;;;;;;5071628;28;20052;-71
2023/07/28 05:35:18;;;;;;;12.52;7.93;;;;;;;;;;5073730;28;20402;-71
2023/07/28 05:37:45;;;;;;;13.32;8.32;;;;;;;;;;5072213;28;20064;-71
2023/07/28 05:40:13;;;;;;;14.90;8.35;;;;;;;;;;5054692;28;20048;-71
2023/07/28 05:42:41;;;;;;;13.70;8.07;;;;;;;;;;5069620;28;20098;-71
2023/07/28 05:45:10;;;;;;;16.17;7.97;;;;;;;;;;5068738;28;20053;-71
2023/07/28 05:47:37;;;;;;;19.65;7.53;;;;;;;;;;5054506;28;20084;-71
2023/07/28 05:50:05;;;;;;;12.07;8.30;;;;;;;;;;5053697;28;20515;-72
2023/07/28 05:52:32;;;;;;;10.13;7.15;;;;;;;;;;5071463;28;20045;-71
2023/07/28 05:55:00;;;;;;;12.25;8.23;;;;;;;;;;5068646;28;20071;-71
2023/07/28 05:57:27;;;;;;;12.85;6.85;;;;;;;;;;5071442;28;20044;-71
2023/07/28 05:59:54;;;;;;;7.78;6.30;;;;;;;;;;5069339;28;20125;-71
2023/07/28 06:02:23;;;;;;;11.43;6.20;;;;;;;;;;5069180;28;20049;-71
2023/07/28 06:04:50;;;;;;;11.15;6.85;;;;;;;;;;5074766;28;20048;-71
2023/07/28 06:07:17;;;;;;;8.25;7.00;;;;;;;;;;5071607;28;20044;-71
2023/07/28 06:09:44;;;;;;;11.32;6.72;;;;;;;;;;5070841;28;20056;-71
2023/07/28 06:12:13;;;;;;;11.02;7.45;;;;;;;;;;5068786;28;20073;-71
2023/07/28 06:14:40;;;;;;;12.00;7.15;;;;;;;;;;5071951;28;20144;-71
2023/07/28 06:17:07;;;;;;;9.65;6.78;;;;;;;;;;5069172;28;20044;-71
2023/07/28 06:19:36;;;;;;;11.13;6.57;;;;;;;;;;5068929;28;20070;-71
2023/07/28 06:22:04;;;;;;;10.73;7.43;;;;;;;;;;5053891;28;20048;-71
2023/07/28 06:24:31;;;;;;;13.82;7.57;;;;;;;;;;5069616;28;20048;-71
2023/07/28 06:26:59;;;;;;;11.55;7.40;;;;;;;;;;5071507;28;20041;-71
2023/07/28 06:29:26;;;;;;;9.85;6.15;;;;;;;;;;5069978;28;20070;-71
2023/07/28 06:31:53;;;;;;;8.93;5.75;;;;;;;;;;5069360;28;20052;-71
2023/07/28 06:34:21;;;;;;;7.90;5.75;;;;;;;;;;5068613;28;20417;-71
2023/07/28 06:36:49;;;;;;;11.55;6.20;;;;;;;;;;5069447;28;20044;-72
2023/07/28 06:39:17;;;;;;;11.20;6.38;;;;;;;;;;5069186;28;20044;-70
2023/07/28 06:41:44;;;;;;;8.90;6.00;;;;;;;;;;5064721;28;20456;-71
2023/07/28 06:44:11;;;;;;;8.98;5.25;;;;;;;;;;5065049;28;20047;-71
2023/07/28 06:46:38;;;;;;;7.82;4.90;;;;;;;;;;5069696;28;20131;-71
2023/07/28 06:49:06;;;;;;;8.20;4.82;;;;;;;;;;5065515;28;20061;-72
2023/07/28 06:51:33;;;;;;;7.82;4.50;;;;;;;;;;5062423;28;20048;-72
2023/07/28 06:54:02;;;;;;;6.72;4.53;;;;;;;;;;5070021;28;20078;-71
2023/07/28 06:56:29;;;;;;;8.13;5.18;;;;;;;;;;5069156;28;20044;-71
2023/07/28 06:58:56;;;;;;;8.75;5.45;;;;;;;;;;5067954;28;20051;-72
2023/07/28 07:01:23;;;;;;;10.70;6.07;;;;;;;;;;5066615;28;20132;-71
2023/07/28 07:03:51;;;;;;;11.80;6.05;;;;;;;;;;5069319;28;20082;-72
2023/07/28 07:06:19;;;;;;;10.38;6.60;;;;;;;;;;5068636;28;20048;-71
2023/07/28 07:08:46;;;;;;;9.18;5.68;;;;;;;;;;5069125;28;20049;-71
2023/07/28 07:11:15;;;;;;;10.55;6.15;;;;;;;;;;5068625;28;20053;-72
2023/07/28 07:13:42;;;;;;;12.38;6.53;;;;;;;;;;5053943;28;20152;-71
2023/07/28 07:16:16;;;;;;;9.10;5.82;;;;;;;;;;5068697;28;20048;-71
2023/07/28 07:18:43;;;;;;;8.95;5.93;;;;;;;;;;5067046;28;20075;-72
2023/07/28 07:21:11;;;;;;;9.32;5.90;;;;;;;;;;5067442;28;20131;-72
2023/07/28 07:23:38;;;;;;;7.95;5.22;;;;;;;;;;5068076;28;20063;-72
2023/07/28 07:26:05;;;;;;;7.55;5.28;;;;;;;;;;5069242;28;20040;-72
2023/07/28 07:28:35;;;;;;;6.18;4.43;;;;;;;;;;5066769;28;20048;-72
2023/07/28 07:31:03;;;;;;;5.30;4.22;;;;;;;;;;5070049;28;20052;-72
2023/07/28 07:33:30;;;;;;;7.30;4.88;;;;;;;;;;5066549;28;20345;-72
2023/07/28 07:35:57;;;;;;;6.68;5.05;;;;;;;;;;5068979;28;20048;-72
2023/07/28 07:38:25;;;;;;;6.68;4.85;;;;;;;;;;5066725;28;20044;-72
2023/07/28 07:40:52;;;;;;;7.50;5.25;;;;;;;;;;5068536;28;20063;-72
2023/07/28 07:43:20;;;;;;;6.30;5.10;;;;;;;;;;5069130;28;20048;-72
2023/07/28 07:45:51;;;;;;;6.43;4.95;;;;;;;;;;5068206;28;20055;-72
2023/07/28 07:48:18;;;;;;;7.85;4.93;;;;;;;;;;5068391;28;20058;-72
2023/07/28 07:50:45;;;;;;;10.50;5.38;;;;;;;;;;5068925;28;20059;-72
2023/07/28 07:53:12;;;;;;;7.95;5.07;;;;;;;;;;5067831;28;20119;-72
2023/07/28 07:55:40;;;;;;;6.90;5.20;;;;;;;;;;5069921;28;20064;-72
2023/07/28 07:58:07;;;;;;;6.03;4.72;;;;;;;;;;5064975;28;20050;-71
2023/07/28 08:00:34;;;;;;;7.00;4.93;;;;;;;;;;5069187;28;20072;-72
2023/07/28 08:03:03;;;;;;;6.38;4.70;;;;;;;;;;5067813;28;20084;-72
2023/07/28 08:05:31;;;;;;;6.55;5.05;;;;;;;;;;5068362;28;20048;-72
2023/07/28 08:07:59;;;;;;;8.52;5.65;;;;;;;;;;5068506;28;20491;-72
2023/07/28 08:10:26;;;;;;;6.05;4.85;;;;;;;;;;5065916;28;20092;-73
2023/07/28 08:12:55;;;;;;;5.38;3.50;;;;;;;;;;5069074;28;20040;-72
2023/07/28 08:15:22;;;;;;;3.30;2.92;;;;;;;;;;5067948;28;20044;-72
2023/07/28 08:17:50;;;;;;;4.38;3.03;;;;;;;;;;5068327;28;20052;-72
2023/07/28 08:20:18;;;;;;;4.15;3.20;;;;;;;;;;5067170;28;20088;-72
2023/07/28 08:22:46;;;;;;;5.65;3.67;;;;;;;;;;5067958;28;20060;-72
2023/07/28 08:25:13;;;;;;;4.60;3.75;;;;;;;;;;5051114;28;20053;-72
2023/07/28 08:27:40;;;;;;;6.35;3.60;;;;;;;;;;5067695;28;20048;-72
2023/07/28 08:30:08;;;;;;;6.00;4.15;;;;;;;;;;5066956;28;20052;-72
2023/07/28 08:32:36;;;;;;;5.95;4.43;;;;;;;;;;5068181;28;20048;-72
2023/07/28 08:35:04;;;;;;;6.35;4.20;;;;;;;;;;5057474;28;20114;-72
2023/07/28 08:37:32;;;;;;;5.15;4.30;;;;;;;;;;5065682;28;20097;-72
2023/07/28 08:40:00;;;;;;;6.13;4.85;;;;;;;;;;5053338;28;20067;-72
2023/07/28 08:42:27;;;;;;;9.00;5.05;;;;;;;;;;5067238;28;20037;-72
2023/07/28 08:44:54;;;;;;;7.13;4.95;;;;;;;;;;5067631;28;20044;-72
2023/07/28 08:47:21;;;;;;;7.30;5.32;;;;;;;;;;5067329;28;20052;-72
2023/07/28 08:49:49;;;;;;;7.35;5.53;;;;;;;;;;5067025;28;20044;-72
2023/07/28 08:52:17;;;;;;;7.70;5.05;;;;;;;;;;5068527;28;20037;-72
2023/07/28 08:54:46;;;;;;;9.32;5.25;;;;;;;;;;5050678;28;20067;-72
2023/07/28 08:57:14;;;;;;;6.25;4.15;;;;;;;;;;5068619;28;20056;-72
2023/07/28 08:59:47;;;;;;;5.75;3.60;;;;;;;;;;5071126;28;20142;-72
2023/07/28 09:02:16;;;;;;;4.03;2.90;;;;;;;;;;5072589;28;20066;-72
2023/07/28 09:04:43;;;;;;;5.45;3.00;;;;;;;;;;5068284;28;20052;-72
2023/07/28 09:07:10;;;;;;;4.55;2.85;;;;;;;;;;5071934;28;20505;-72
2023/07/28 09:09:38;;;;;;;4.95;3.13;;;;;;;;;;5071100;28;20048;-72
2023/07/28 09:12:07;;;;;;;5.07;2.80;;;;;;;;;;5053651;28;20055;-72
2023/07/28 09:14:36;;;;;;;5.13;2.90;;;;;;;;;;5070842;28;20057;-72
2023/07/28 09:17:08;;;;;;;4.68;3.00;;;;;;;;;;5071772;28;20483;-72
2023/07/28 09:19:35;;;;;;;4.10;2.30;;;;;;;;;;5071763;28;20049;-72
2023/07/28 09:22:04;;;;;;;3.08;2.10;;;;;;;;;;5072211;28;20044;-72
2023/07/28 09:24:32;;;;;;;8.50;2.15;;;;;;;;;;5070290;28;20534;-72
2023/07/28 09:27:00;;;;;;;4.85;1.98;;;;;;;;;;5071547;28;20480;-72
2023/07/28 09:29:29;;;;;;;2.92;2.30;;;;;;;;;;5071002;28;20471;-72
2023/07/28 09:32:04;;;;;;;3.83;2.35;;;;;;;;;;5071333;28;20045;-72
2023/07/28 09:34:31;;;;;;;4.70;2.40;;;;;;;;;;5070400;28;20063;-72
2023/07/28 09:36:59;;;;;;;4.85;2.70;;;;;;;;;;5064261;28;20037;-72
2023/07/28 09:39:27;;;;;;;3.78;2.90;;;;;;;;;;5070761;28;20053;-72
2023/07/28 09:41:58;;;;;;;2.60;2.30;;;;;;;;;;5071850;28;20343;-72
2023/07/28 09:44:25;;;;;;;4.05;2.25;;;;;;;;;;5071893;28;20101;-72
2023/07/28 09:46:55;;;;;;;4.32;2.92;;;;;;;;;;5070250;28;20494;-72
2023/07/28 09:49:23;;;;;;;4.05;2.90;;;;;;;;;;5068874;28;20048;-72
2023/07/28 09:51:55;;;;;;;4.15;2.65;;;;;;;;;;5068941;28;20170;-72
2023/07/28 09:54:27;;;;;;;2.92;1.90;;;;;;;;;;5071220;28;20041;-72
2023/07/28 09:56:57;;;;;;;3.60;2.30;;;;;;;;;;5060303;28;20106;-72
2023/07/28 09:59:26;;;;;;;3.92;2.15;;;;;;;;;;5070611;28;20491;-72
2023/07/28 10:01:54;;;;;;;4.43;1.95;;;;;;;;;;5070066;28;20054;-72
2023/07/28 10:04:22;;;;;;;2.20;1.92;;;;;;;;;;5061932;28;20063;-72
2023/07/28 10:06:49;;;;;;;2.08;1.50;;;;;;;;;;5070149;28;20055;-72
2023/07/28 10:09:17;;;;;;;1.92;1.52;;;;;;;;;;5070461;28;20041;-72
2023/07/28 10:11:44;;;;;;;2.00;1.30;;;;;;;;;;5056848;28;20063;-72
2023/07/28 10:14:11;;;;;;;2.38;1.10;;;;;;;;;;5071740;28;20044;-72
2023/07/28 10:16:39;;;;;;;1.48;1.35;;;;;;;;;;5057405;28;20048;-72
2023/07/28 10:19:08;;;;;;;1.38;1.27;;;;;;;;;;5067967;28;20407;-72
2023/07/28 10:21:41;;;;;;;1.90;1.30;;;;;;;;;;5068156;28;20492;-72
2023/07/28 10:24:08;;;;;;;;;;;;;;;;;;5070342;28;20122;-72
2023/07/28 10:26:41;;;;;;;3.03;1.60;;;;;;;;;;5053377;28;19927;-72
2023/07/28 10:29:11;;;;;;;1.33;1.15;;;;;;;;;;5066889;28;20048;-72
2023/07/28 10:31:39;;;;;;;1.98;1.38;;;;;;;;;;5069930;28;20044;-72
2023/07/28 10:34:09;;;;;;;1.48;1.30;;;;;;;;;;5061888;28;20172;-72
2023/07/28 10:36:36;;;;;;;2.83;1.50;;;;;;;;;;5068517;28;20055;-72
2023/07/28 10:39:13;;;;;;;2.83;1.40;;;;;;;;;;5070512;28;20128;-71
2023/07/28 10:41:42;;;;;;;2.25;1.40;;;;;;;;;;5069731;28;20058;-72
2023/07/28 10:44:09;;;;;;;1.45;1.20;;;;;;;;;;5070215;28;20052;-71
2023/07/28 10:46:38;;;;;;;1.88;1.30;;;;;;;;;;5075203;28;20056;-72
2023/07/28 10:49:08;;;;;;;1.85;1.30;;;;;;;;;;5061698;28;20087;-72
2023/07/28 10:51:37;;;;;;;2.25;1.55;;;;;;;;;;5069506;28;20048;-73
2023/07/28 10:54:04;;;;;;;1.73;1.30;;;;;;;;;;5063527;28;20052;-72
2023/07/28 10:56:32;;;;;;;1.73;1.27;;;;;;;;;;5071250;28;20051;-72
2023/07/28 10:58:59;;;;;;;1.92;1.27;;;;;;;;;;5069676;28;20068;-72
2023/07/28 11:01:33;;;;;;;2.22;1.30;;;;;;;;;;5070040;28;20055;-71
2023/07/28 11:04:09;;;;;;;1.88;1.10;;;;;;;;;;5064948;28;20040;-72
2023/07/28 11:06:36;;;;;;;1.85;1.52;;;;;;;;;;5069739;28;20118;-71
2023/07/28 11:09:08;;;;;;;3.05;1.40;;;;;;;;;;5070502;28;20052;-72
2023/07/28 11:11:36;;;;;;;1.50;1.25;;;;;;;;;;5074224;28;20063;-72
2023/07/28 11:14:04;;;;;;;2.00;1.27;;;;;;;;;;5068507;28;20044;-72
2023/07/28 11:16:32;;;;;;;3.60;1.63;;;;;;;;;;5059221;28;20082;-72
2023/07/28 11:19:02;;;;;;;1.85;1.30;;;;;;;;;;5067573;28;20048;-71
2023/07/28 11:21:31;;;;;;;3.15;1.63;;;;;;;;;;5067475;28;20094;-72
2023/07/28 11:23:58;;;;;;;2.08;1.60;;;;;;;;;;5069335;28;20408;-72
2023/07/28 11:26:25;;;;;;;2.47;1.40;;;;;;;;;;5050794;28;20056;-72
2023/07/28 11:28:54;;;;;;;2.38;1.67;;;;;;;;;;5060692;28;20070;-72
2023/07/28 11:31:26;;;;;;;2.05;1.63;;;;;;;;;;5069494;28;20141;-72
2023/07/28 11:33:54;;;;;;;3.83;1.63;;;;;;;;;;5069429;28;20102;-72
2023/07/28 11:36:24;;;;;;;2.28;1.67;;;;;;;;;;5067723;28;20381;-71
2023/07/28 11:38:54;;;;;;;2.22;1.65;;;;;;;;;;5068637;28;20049;-72
2023/07/28 11:41:22;;;;;;;2.30;1.40;;;;;;;;;;5068061;28;20174;-72
2023/07/28 11:43:49;;;;;;;4.18;1.42;;;;;;;;;;5067273;28;20050;-72
2023/07/28 11:46:34;;;;;;;1.95;1.17;;;;;;;;;;5069464;28;20479;-72
2023/07/28 11:49:08;;;;;;;2.22;1.30;;;;;;;;;;5054087;28;20068;-72
2023/07/28 11:51:39;;;;;;;2.75;1.00;;;;;;;;;;5064253;28;20060;-73
2023/07/28 11:54:08;;;;;;;1.90;1.40;;;;;;;;;;5049705;28;20049;-72
2023/07/28 11:56:35;;;;;;;2.92;1.55;;;;;;;;;;5065231;28;20462;-72
2023/07/28 11:59:03;;;;;;;2.90;1.35;;;;;;;;;;5067954;28;20052;-72
2023/07/28 12:01:31;;;;;;;2.08;1.10;;;;;;;;;;5068845;28;20593;-72
2023/07/28 12:04:00;;;;;;;3.80;1.20;;;;;;;;;;5070380;28;20048;-73
2023/07/28 12:06:27;;;;;;;2.13;1.00;;;;;;;;;;5066950;28;20128;-72
2023/07/28 12:09:05;;;;;;;2.90;1.13;;;;;;;;;;5066604;28;20392;-72
2023/07/28 12:11:34;;;;;;;1.67;1.13;;;;;;;;;;5067772;28;20079;-72
2023/07/28 12:14:01;;;;;;;1.92;1.30;;;;;;;;;;5070314;28;20048;-72
2023/07/28 12:16:40;;;;;;;1.25;1.10;;;;;;;;;;5067112;28;20044;-72
2023/07/28 12:19:07;;;;;;;2.75;1.33;;;;;;;;;;5068399;28;20048;-72
2023/07/28 12:21:35;;;;;;;5.25;1.52;;;;;;;;;;5068678;28;20106;-72
2023/07/28 12:24:02;;;;;;;2.42;1.60;;;;;;;;;;5068162;28;20045;-72
2023/07/28 12:26:29;;;;;;;1.58;1.30;;;;;;;;;;5064337;28;20076;-73
2023/07/28 12:28:58;;;;;;;2.40;1.33;;;;;;;;;;5068097;28;20388;-72
2023/07/28 12:31:25;;;;;;;1.75;0.98;;;;;;;;;;5067345;28;20135;-73
2023/07/28 12:33:53;;;;;;;1.20;1.08;;;;;;;;;;5068286;28;20040;-73
2023/07/28 12:36:20;;;;;;;2.30;1.60;;;;;;;;;;5068371;28;20053;-72
2023/07/28 12:38:47;;;;;;;1.92;1.60;;;;;;;;;;5065674;28;20064;-72
2023/07/28 12:41:14;;;;;;;3.83;1.40;;;;;;;;;;5068146;28;20059;-72
2023/07/28 12:43:42;;;;;;;1.17;1.08;;;;;;;;;;5049402;28;20044;-72
2023/07/28 12:46:10;;;;;;;1.15;0.93;;;;;;;;;;5068720;28;20059;-72
2023/07/28 12:48:37;;;;;;;1.77;1.30;;;;;;;;;;5067572;28;20048;-72
2023/07/28 12:51:05;;;;;;;2.03;1.05;;;;;;;;;;5068843;28;20410;-73
2023/07/28 12:53:32;;;;;;;1.83;1.10;;;;;;;;;;5068078;28;20075;-72
2023/07/28 12:56:00;;;;;;;1.60;1.00;;;;;;;;;;5067665;28;20083;-73
2023/07/28 12:58:27;;;;;;;1.58;1.40;;;;;;;;;;5068311;28;20075;-72
2023/07/28 13:00:56;;;;;;;1.60;1.35;;;;;;;;;;5068518;28;20503;-72
2023/07/28 13:03:24;;;;;;;1.33;1.15;;;;;;;;;;5066353;28;20380;-73
2023/07/28 13:05:52;;;;;;;1.52;1.10;;;;;;;;;;5067340;28;20411;-73
2023/07/28 13:08:19;;;;;;;1.25;0.90;;;;;;;;;;5068102;28;20044;-73
2023/07/28 13:10:46;;;;;;;1.80;1.20;;;;;;;;;;5065793;28;20492;-72
2023/07/28 13:13:13;;;;;;;3.83;1.02;;;;;;;;;;5052468;28;20067;-73
2023/07/28 13:15:41;;;;;;;1.20;0.85;;;;;;;;;;5067457;28;20049;-73
2023/07/28 13:18:08;;;;;;;1.15;1.02;;;;;;;;;;5067102;28;20377;-73
2023/07/28 13:20:37;;;;;;;0.73;0.73;;;;;;;;;;5066879;28;20056;-73
2023/07/28 13:23:04;;;;;;;1.33;0.80;;;;;;;;;;5067013;28;20450;-73
2023/07/28 13:25:31;;;;;;;0.98;0.88;;;;;;;;;;5049987;28;20055;-73
2023/07/28 13:27:58;;;;;;;1.20;1.08;;;;;;;;;;5066994;28;20475;-72
2023/07/28 13:30:26;;;;;;;1.10;0.90;;;;;;;;;;5067679;28;20052;-73
2023/07/28 13:32:53;;;;;;;1.10;1.00;;;;;;;;;;5067160;28;20391;-73
2023/07/28 13:35:20;;;;;;;1.73;1.00;;;;;;;;;;5065313;28;20116;-74
2023/07/28 13:37:49;;;;;;;1.65;0.98;;;;;;;;;;5066962;28;20540;-74
2023/07/28 13:40:16;;;;;;;2.75;1.10;;;;;;;;;;5051909;28;21404;-73
2023/07/28 13:42:43;;;;;;;1.65;1.40;;;;;;;;;;5067370;28;20048;-73
2023/07/28 13:45:11;;;;;;;1.95;1.40;;;;;;;;;;5070508;28;20094;-73
2023/07/28 13:47:38;;;;;;;3.58;1.27;;;;;;;;;;5071095;28;20045;-72
2023/07/28 13:50:07;;;;;;;1.48;1.25;;;;;;;;;;5070939;28;20120;-74
2023/07/28 13:52:34;;;;;;;1.60;1.38;;;;;;;;;;5071504;28;20052;-73
2023/07/28 13:55:04;;;;;;;1.70;1.27;;;;;;;;;;5071327;28;20491;-73
2023/07/28 13:57:32;;;;;;;1.30;1.20;;;;;;;;;;5070269;28;20051;-74
2023/07/28 13:59:59;;;;;;;1.30;1.20;;;;;;;;;;5056684;28;20048;-73
2023/07/28 14:02:27;;;;;;;1.80;1.27;;;;;;;;;;5069498;28;20063;-73
2023/07/28 14:04:54;;;;;;;1.92;1.45;;;;;;;;;;5066242;28;20484;-74
2023/07/28 14:07:21;;;;;;;1.60;1.30;;;;;;;;;;5070870;28;20044;-74
2023/07/28 14:09:48;;;;;;;2.10;1.30;;;;;;;;;;5069309;28;20092;-74
2023/07/28 14:12:18;;;;;;;2.45;1.20;;;;;;;;;;5067590;28;20060;-74
2023/07/28 14:14:45;;;;;;;2.10;1.50;;;;;;;;;;5070858;28;20045;-74
2023/07/28 14:17:12;;;;;;;1.73;1.33;;;;;;;;;;5068888;28;20055;-73
2023/07/28 14:19:40;;;;;;;2.22;1.33;;;;;;;;;;5069499;28;20147;-72
2023/07/28 14:22:08;;;;;;;1.92;1.15;;;;;;;;;;5069948;28;20076;-74
2023/07/28 14:24:35;;;;;;;1.98;1.10;;;;;;;;;;5055925;28;20079;-73
2023/07/28 14:27:03;;;;;;;3.17;1.20;;;;;;;;;;5069463;28;20072;-73
2023/07/28 14:29:31;;;;;;;1.60;1.20;;;;;;;;;;5069752;28;20512;-73
2023/07/28 14:31:58;;;;;;;1.80;1.48;;;;;;;;;;5070044;28;20407;-73
2023/07/28 14:34:26;;;;;;;2.17;1.40;;;;;;;;;;5070185;28;20047;-73
2023/07/28 14:36:53;;;;;;;1.33;1.20;;;;;;;;;;5070306;28;20048;-73
2023/07/28 14:39:20;;;;;;;2.20;1.30;;;;;;;;;;5067893;28;20051;-73
2023/07/28 14:41:47;;;;;;;3.90;1.48;;;;;;;;;;5069861;28;20052;-73